createdAt,value
2019-02-06T00:03:26.506Z,5.43
2019-02-06T00:08:31.825Z,5.37
2019-02-06T00:13:37.277Z,5.31
2019-02-06T00:18:42.630Z,5.25
2019-02-06T00:23:48.130Z,5.19
2019-02-06T00:28:53.724Z,5.14
2019-02-06T00:33:59.111Z,5.11
2019-02-06T00:39:06.797Z,5.09
2019-02-06T00:44:12.153Z,5.07
2019-02-06T00:49:17.443Z,5.05
2019-02-06T00:54:22.887Z,5.04
2019-02-06T00:59:28.252Z,5.02
2019-02-06T01:04:33.605Z,5.01
2019-02-06T01:09:38.968Z,5.01
2019-02-06T01:14:44.401Z,4.99
2019-02-06T01:19:49.759Z,4.99
2019-02-06T01:24:55.115Z,4.98
2019-02-06T01:30:00.652Z,4.95
2019-02-06T01:35:06.503Z,4.92
2019-02-06T01:40:12.921Z,4.88
2019-02-06T01:45:19.266Z,4.84
2019-02-06T01:50:24.600Z,4.81
2019-02-06T01:55:29.940Z,4.77
2019-02-06T02:00:35.344Z,4.72
2019-02-06T02:05:40.682Z,4.68
2019-02-06T02:10:46.085Z,4.64
2019-02-06T02:15:51.492Z,4.60
2019-02-06T02:20:56.805Z,4.55
2019-02-06T02:26:02.147Z,4.53
2019-02-06T02:31:07.575Z,4.49
2019-02-06T02:36:15.878Z,4.47
2019-02-06T02:41:19.944Z,4.49
2019-02-06T02:46:25.332Z,4.48
2019-02-06T02:51:30.904Z,4.47
2019-02-06T02:56:36.261Z,4.47
2019-02-06T03:02:03.282Z,4.45
2019-02-06T03:07:08.708Z,4.44
2019-02-06T03:12:14.395Z,4.44
2019-02-06T03:17:19.721Z,4.43
2019-02-06T03:22:25.026Z,4.40
2019-02-06T03:27:30.365Z,4.40
2019-02-06T03:32:35.745Z,4.38
2019-02-06T03:37:41.144Z,4.39
2019-02-06T03:42:46.631Z,4.39
2019-02-06T03:47:52.303Z,4.41
2019-02-06T03:52:57.619Z,4.43
2019-02-06T03:58:02.906Z,4.44
2019-02-06T04:03:08.237Z,4.46
2019-02-06T04:08:13.661Z,4.49
2019-02-06T04:13:19.018Z,4.47
2019-02-06T04:18:24.358Z,4.46
2019-02-06T04:23:29.678Z,4.44
2019-02-06T04:28:35.063Z,4.43
2019-02-06T04:33:40.350Z,4.43
2019-02-06T04:38:45.782Z,4.41
2019-02-06T04:43:51.125Z,4.41
2019-02-06T04:48:56.421Z,4.39
2019-02-06T04:54:01.774Z,4.37
2019-02-06T04:59:07.100Z,4.35
2019-02-06T05:04:12.558Z,4.32
2019-02-06T05:09:17.905Z,4.32
2019-02-06T05:14:23.227Z,4.31
2019-02-06T05:19:28.503Z,4.31
2019-02-06T05:24:34.188Z,4.31
2019-02-06T05:29:39.502Z,4.34
2019-02-06T05:34:44.954Z,4.35
2019-02-06T05:39:50.352Z,4.40
2019-02-06T05:44:55.823Z,4.44
2019-02-06T05:50:01.400Z,4.47
2019-02-06T05:55:07.181Z,4.53
2019-02-06T06:00:20.822Z,4.54
2019-02-06T06:05:26.160Z,4.55
2019-02-06T06:10:31.449Z,4.53
2019-02-06T06:15:36.809Z,4.49
2019-02-06T06:20:42.183Z,4.43
2019-02-06T06:25:47.755Z,4.38
2019-02-06T06:30:53.104Z,4.33
2019-02-06T06:35:58.477Z,4.28
2019-02-06T06:41:03.827Z,4.23
2019-02-06T06:46:09.219Z,4.21
2019-02-06T06:51:14.542Z,4.21
2019-02-06T06:56:19.827Z,4.22
2019-02-06T07:01:25.231Z,4.24
2019-02-06T07:06:30.516Z,4.26
2019-02-06T07:11:35.888Z,4.30
2019-02-06T07:16:41.238Z,4.37
2019-02-06T07:21:46.527Z,4.46
2019-02-06T07:26:51.904Z,4.59
2019-02-06T07:31:57.207Z,4.76
2019-02-06T07:37:02.602Z,4.94
2019-02-06T07:42:07.914Z,5.09
2019-02-06T07:47:13.319Z,5.31
2019-02-06T07:52:18.893Z,5.49
2019-02-06T07:57:24.281Z,5.68
2019-02-06T08:02:29.790Z,5.87
2019-02-06T08:07:35.291Z,6.09
2019-02-06T08:12:40.618Z,6.25
2019-02-06T08:17:45.994Z,6.28
2019-02-06T08:22:51.427Z,6.34
2019-02-06T08:27:56.951Z,6.40
2019-02-06T08:33:02.259Z,6.44
2019-02-06T08:38:08.054Z,6.40
2019-02-06T08:43:13.699Z,6.42
2019-02-06T08:48:19.001Z,6.45
2019-02-06T08:53:24.374Z,6.47
2019-02-06T08:58:29.680Z,6.54
2019-02-06T09:03:35.317Z,6.60
2019-02-06T09:08:40.659Z,6.65
2019-02-06T09:13:45.994Z,6.72
2019-02-06T09:18:51.357Z,6.85
2019-02-06T09:23:56.692Z,7.00
2019-02-06T09:29:02.075Z,7.18
2019-02-06T09:34:09.626Z,7.41
2019-02-06T09:39:14.608Z,7.63
2019-02-06T09:44:19.983Z,7.86
2019-02-06T09:49:25.329Z,7.93
2019-02-06T09:54:30.692Z,8.09
2019-02-06T09:59:35.993Z,8.48
2019-02-06T10:04:41.485Z,8.67
2019-02-06T10:09:46.875Z,8.84
2019-02-06T10:14:52.578Z,9.06
2019-02-06T10:19:57.915Z,9.21
2019-02-06T10:25:03.337Z,9.43
2019-02-06T10:30:20.165Z,9.63
2019-02-06T10:35:25.491Z,9.81
2019-02-06T10:40:31.190Z,10.00
2019-02-06T10:45:36.485Z,10.14
2019-02-06T10:50:48.540Z,10.34
2019-02-06T10:55:53.839Z,10.55
2019-02-06T11:01:01.931Z,10.85
2019-02-06T11:06:07.315Z,11.24
2019-02-06T11:11:12.653Z,11.54
2019-02-06T11:16:18.065Z,11.69
2019-02-06T11:21:23.403Z,11.70
2019-02-06T11:26:28.766Z,11.59
2019-02-06T11:31:35.941Z,11.56
2019-02-06T11:36:41.345Z,11.68
2019-02-06T11:41:46.658Z,11.79
2019-02-06T11:46:52.067Z,11.95
2019-02-06T11:51:57.483Z,12.07
2019-02-06T11:57:02.981Z,12.28
2019-02-06T12:02:08.356Z,12.46
2019-02-06T12:07:13.706Z,12.66
2019-02-06T12:12:19.146Z,12.81
2019-02-06T12:17:24.448Z,12.90
2019-02-06T12:22:29.906Z,13.13
2019-02-06T12:27:35.252Z,13.37
2019-02-06T12:32:51.500Z,13.44
2019-02-06T12:37:47.712Z,13.55
2019-02-06T12:42:53.095Z,13.62
2019-02-06T12:47:58.577Z,13.72
2019-02-06T12:53:04.111Z,14.02
2019-02-06T12:58:09.717Z,14.37
2019-02-06T13:03:15.141Z,14.57
2019-02-06T13:08:20.522Z,14.69
2019-02-06T13:13:25.972Z,14.76
2019-02-06T13:18:31.348Z,14.71
2019-02-06T13:23:36.761Z,14.71
2019-02-06T13:28:42.163Z,14.77
2019-02-06T13:33:47.501Z,14.76
2019-02-06T13:38:53.076Z,14.74
2019-02-06T13:43:58.573Z,14.76
2019-02-06T13:49:03.880Z,14.79
2019-02-06T13:54:09.467Z,14.75
2019-02-06T13:59:14.807Z,14.73
2019-02-06T14:04:20.141Z,14.69
2019-02-06T14:09:25.843Z,14.66
2019-02-06T14:14:32.223Z,14.58
2019-02-06T14:19:37.717Z,14.50
2019-02-06T14:25:48.399Z,14.43
2019-02-06T14:31:22.513Z,14.29
2019-02-06T14:37:23.771Z,14.20
2019-02-06T14:43:02.162Z,14.07
2019-02-06T14:49:09.728Z,14.02
2019-02-06T14:54:54.165Z,13.97
2019-02-06T15:01:01.063Z,13.88
2019-02-06T15:06:48.368Z,13.76
2019-02-06T15:12:07.821Z,13.64
2019-02-06T15:18:27.255Z,13.64
2019-02-06T15:24:16.141Z,13.59
2019-02-06T15:29:58.501Z,13.59
2019-02-06T15:36:19.021Z,13.56
2019-02-06T15:42:16.561Z,13.45
2019-02-06T15:48:19.090Z,13.34
2019-02-06T15:54:28.159Z,13.24
2019-02-06T16:00:32.214Z,12.98
2019-02-06T16:06:37.082Z,12.68
2019-02-06T16:12:38.275Z,12.49
2019-02-06T16:18:48.353Z,12.40
2019-02-06T16:24:37.671Z,12.29
2019-02-06T16:30:23.753Z,12.08
2019-02-06T16:36:53.394Z,11.83
2019-02-06T16:42:55.648Z,11.50
2019-02-06T16:49:01.432Z,11.16
2019-02-06T16:55:39.835Z,10.88
2019-02-06T17:01:37.182Z,10.62
2019-02-06T17:07:26.899Z,10.50
2019-02-06T17:13:39.746Z,10.51
2019-02-06T17:19:09.483Z,10.59
2019-02-06T17:25:35.763Z,10.62
2019-02-06T17:31:33.590Z,10.55
2019-02-06T17:37:05.507Z,10.47
2019-02-06T17:42:55.609Z,10.44
2019-02-06T17:49:02.694Z,10.48
2019-02-06T17:55:06.551Z,10.54
2019-02-06T18:00:31.688Z,10.62
2019-02-06T18:05:40.166Z,10.68
2019-02-06T18:10:44.609Z,10.73
2019-02-06T18:15:50.052Z,10.69
2019-02-06T18:20:55.608Z,10.68
2019-02-06T18:26:01.272Z,10.68
2019-02-06T18:31:06.974Z,10.67
2019-02-06T18:36:12.465Z,10.62
2019-02-06T18:41:18.107Z,10.54
2019-02-06T18:46:23.717Z,10.44
2019-02-06T18:51:29.440Z,10.37
2019-02-06T18:56:34.870Z,10.33
2019-02-06T19:01:40.939Z,10.25
2019-02-06T19:06:46.656Z,10.24
2019-02-06T19:11:52.340Z,10.22
2019-02-06T19:16:57.995Z,10.23
2019-02-06T19:22:04.003Z,10.20
2019-02-06T19:27:09.595Z,10.20
2019-02-06T19:32:15.042Z,10.21
2019-02-06T19:37:20.592Z,10.23
2019-02-06T19:42:26.321Z,10.23
2019-02-06T19:47:32.048Z,10.25
2019-02-06T19:52:37.536Z,10.27
2019-02-06T19:57:43.308Z,10.29
2019-02-06T20:02:48.960Z,10.24
2019-02-06T20:07:54.701Z,10.21
2019-02-06T20:13:10.219Z,10.18
2019-02-06T20:18:07.426Z,10.16
2019-02-06T20:23:13.027Z,10.14
2019-02-06T20:28:18.603Z,10.12
2019-02-06T20:33:24.387Z,10.10
2019-02-06T20:38:29.983Z,10.08
2019-02-06T20:43:35.440Z,10.03
2019-02-06T20:48:41.044Z,9.99
2019-02-06T20:53:46.576Z,9.95
2019-02-06T20:58:51.878Z,9.90
2019-02-06T21:03:57.206Z,9.91
2019-02-06T21:09:02.551Z,9.95
2019-02-06T21:14:08.452Z,9.97
2019-02-06T21:19:13.996Z,9.97
2019-02-06T21:24:19.352Z,9.94
2019-02-06T21:29:27.948Z,9.87
2019-02-06T21:34:33.261Z,9.85
2019-02-06T21:39:38.695Z,9.84
2019-02-06T21:44:44.058Z,9.81
2019-02-06T21:49:50.287Z,9.74
2019-02-06T21:54:56.757Z,9.73
2019-02-06T22:00:02.224Z,9.74
2019-02-06T22:05:07.708Z,9.82
2019-02-06T22:10:14.005Z,9.88
2019-02-06T22:15:22.263Z,9.93
2019-02-06T22:20:27.926Z,9.96
2019-02-06T22:25:33.597Z,9.96
2019-02-06T22:30:39.334Z,9.98
2019-02-06T22:35:45.210Z,9.96
2019-02-06T22:40:50.770Z,9.95
2019-02-06T22:45:56.300Z,9.95
2019-02-06T22:51:01.875Z,9.95
2019-02-06T22:56:07.528Z,9.99
2019-02-06T23:01:38.975Z,9.98
2019-02-06T23:06:44.659Z,9.98
2019-02-06T23:11:49.987Z,9.97
2019-02-06T23:16:55.641Z,9.97
2019-02-06T23:22:00.988Z,9.98
2019-02-06T23:27:06.379Z,10.00
2019-02-06T23:32:11.706Z,9.99
2019-02-06T23:37:17.212Z,9.94
2019-02-06T23:42:23.433Z,9.91
2019-02-06T23:47:28.896Z,9.87
2019-02-06T23:52:34.908Z,9.75
2019-02-06T23:57:40.214Z,9.63
